Terminal Aerodrome Forecast
Issued by NWS

Home | Current Version | Previous Version | Graphics & Text | Print | Product List | Glossary On
Versions: 1 2 3 4 5 6 7 8 9 10 11 12 13 14
021
FTUS45 KGGW 271132
TAFSDY
TAF
KSDY 271132Z 2712/2812 17007KT P6SM FEW170
     FM271900 27011KT P6SM SCT150
     FM272300 30016G24KT P6SM VCSH BKN100
     FM280400 32017KT P6SM SCT090
     FM281000 29008KT P6SM FEW190=

USA.gov is the U.S. government's official web portal to all federal, state and local government web resources and services.